createdAt,value
2023-04-08T00:02:21.020Z,68.00
2023-04-08T00:04:47.435Z,67.55
2023-04-08T00:07:13.775Z,68.16
2023-04-08T00:09:40.078Z,67.98
2023-04-08T00:12:06.661Z,68.28
2023-04-08T00:14:33.036Z,68.50
2023-04-08T00:16:59.343Z,68.55
2023-04-08T00:19:25.736Z,68.52
2023-04-08T00:21:52.077Z,69.10
2023-04-08T00:24:19.395Z,69.14
2023-04-08T00:26:45.699Z,68.90
2023-04-08T00:29:12.014Z,69.15
2023-04-08T00:31:38.325Z,69.34
2023-04-08T00:34:04.647Z,69.30
2023-04-08T00:36:30.946Z,70.18
2023-04-08T00:38:57.256Z,70.00
2023-04-08T00:41:23.623Z,70.64
2023-04-08T00:43:49.938Z,70.49
2023-04-08T00:46:16.400Z,70.41
2023-04-08T00:48:42.769Z,70.74
2023-04-08T00:51:09.127Z,70.83
2023-04-08T00:53:35.436Z,71.29
2023-04-08T00:56:01.738Z,71.12
2023-04-08T00:58:29.321Z,71.37
2023-04-08T01:01:05.623Z,72.14
2023-04-08T01:03:47.075Z,71.48
2023-04-08T01:06:19.974Z,72.50
2023-04-08T01:08:48.064Z,72.58
2023-04-08T01:11:15.031Z,72.48
2023-04-08T01:13:44.513Z,71.92
2023-04-08T01:16:14.063Z,72.18
2023-04-08T01:18:42.116Z,72.53
2023-04-08T01:21:09.684Z,73.56
2023-04-08T01:24:10.835Z,73.37
2023-04-08T01:26:38.351Z,73.84
2023-04-08T01:29:07.406Z,73.94
2023-04-08T01:31:36.654Z,74.02
2023-04-08T01:34:04.940Z,74.80
2023-04-08T01:36:32.610Z,75.27
2023-04-08T01:39:01.925Z,75.36
2023-04-08T01:41:29.747Z,75.23
2023-04-08T01:43:57.551Z,75.46
2023-04-08T01:46:24.298Z,75.41
2023-04-08T01:48:52.110Z,75.60
2023-04-08T01:51:19.664Z,76.08
2023-04-08T01:53:46.029Z,76.61
2023-04-08T01:56:15.555Z,77.12
2023-04-08T01:58:46.310Z,77.21
2023-04-08T02:01:16.977Z,77.60
2023-04-08T02:03:45.039Z,78.07
2023-04-08T02:06:11.479Z,78.61
2023-04-08T02:08:37.775Z,79.20
2023-04-08T02:11:04.161Z,80.26
2023-04-08T02:13:32.145Z,79.82
2023-04-08T02:16:16.098Z,79.51
2023-04-08T02:18:47.992Z,79.88
2023-04-08T02:21:15.769Z,80.69
2023-04-08T02:23:48.556Z,81.01
2023-04-08T02:26:16.432Z,82.29
2023-04-08T02:28:43.209Z,83.66
2023-04-08T02:31:11.752Z,82.05
2023-04-08T02:33:39.198Z,82.68
2023-04-08T02:36:06.751Z,83.18
2023-04-08T02:38:33.088Z,81.56
2023-04-08T02:40:59.420Z,80.86
2023-04-08T02:43:26.077Z,81.24
2023-04-08T02:45:52.621Z,81.57
2023-04-08T02:48:18.939Z,81.57
2023-04-08T02:50:45.244Z,82.09
2023-04-08T02:53:11.561Z,82.13
2023-04-08T02:55:37.991Z,84.32
2023-04-08T02:58:04.320Z,85.09
2023-04-08T03:00:30.670Z,85.22
2023-04-08T03:02:57.230Z,84.18
2023-04-08T03:05:23.985Z,83.73
2023-04-08T03:07:50.278Z,83.73
2023-04-08T03:10:16.647Z,84.50
2023-04-08T03:12:43.085Z,83.92
2023-04-08T03:15:09.724Z,83.62
2023-04-08T03:17:36.097Z,83.83
2023-04-08T03:20:02.905Z,84.03
2023-04-08T03:22:29.230Z,84.42
2023-04-08T03:24:55.524Z,85.07
2023-04-08T03:27:21.837Z,85.10
2023-04-08T03:29:48.141Z,85.63
2023-04-08T03:32:14.566Z,86.15
2023-04-08T03:34:41.112Z,86.20
2023-04-08T03:37:07.598Z,87.06
2023-04-08T03:39:33.932Z,87.11
2023-04-08T03:42:00.290Z,87.08
2023-04-08T03:44:27.186Z,86.66
2023-04-08T03:46:53.486Z,85.82
2023-04-08T03:49:19.818Z,86.64
2023-04-08T03:51:46.156Z,85.86
2023-04-08T03:54:12.468Z,86.48
2023-04-08T03:56:38.790Z,87.23
2023-04-08T03:59:05.094Z,88.26
2023-04-08T04:01:31.451Z,88.70
2023-04-08T04:03:58.619Z,88.11
2023-04-08T04:06:25.122Z,87.48
2023-04-08T04:08:54.042Z,87.27
2023-04-08T04:11:20.366Z,86.77
2023-04-08T04:13:46.665Z,87.01
2023-04-08T04:16:13.033Z,87.18
2023-04-08T04:18:39.400Z,86.92
2023-04-08T04:21:06.604Z,87.60
2023-04-08T04:23:33.048Z,88.31
2023-04-08T04:25:59.437Z,88.88
2023-04-08T04:28:25.732Z,87.83
2023-04-08T04:30:52.385Z,89.57
2023-04-08T04:33:19.607Z,89.81
2023-04-08T04:35:45.935Z,89.64
2023-04-08T04:38:12.262Z,90.55
2023-04-08T04:40:39.389Z,90.80
2023-04-08T04:43:05.728Z,90.36
2023-04-08T04:45:32.128Z,88.82
2023-04-08T04:47:58.556Z,90.54
2023-04-08T04:50:24.947Z,90.77
2023-04-08T04:52:51.292Z,90.28
2023-04-08T04:55:17.621Z,88.86
2023-04-08T04:57:43.950Z,89.23
2023-04-08T05:00:10.794Z,89.38
2023-04-08T05:02:37.307Z,88.36
2023-04-08T05:05:03.961Z,90.09
2023-04-08T05:07:30.318Z,88.86
2023-04-08T05:09:56.612Z,88.48
2023-04-08T05:12:22.968Z,87.93
2023-04-08T05:14:49.275Z,88.57
2023-04-08T05:17:15.569Z,90.14
2023-04-08T05:19:41.884Z,89.57
2023-04-08T05:22:08.194Z,88.24
2023-04-08T05:24:34.524Z,89.46
2023-04-08T05:27:00.819Z,89.70
2023-04-08T05:29:27.341Z,88.88
2023-04-08T05:31:53.788Z,88.81
2023-04-08T05:34:20.143Z,88.23
2023-04-08T05:36:46.444Z,87.88
2023-04-08T05:39:12.730Z,89.17
2023-04-08T05:41:39.046Z,88.33
2023-04-08T05:44:05.423Z,88.14
2023-04-08T05:46:31.737Z,89.01
2023-04-08T05:48:58.069Z,87.36
2023-04-08T05:51:24.398Z,86.72
2023-04-08T05:53:50.686Z,86.79
2023-04-08T05:56:16.990Z,86.29
2023-04-08T05:58:43.303Z,86.61
2023-04-08T06:01:09.647Z,87.31
2023-04-08T06:03:36.151Z,87.78
2023-04-08T06:06:02.569Z,86.45
2023-04-08T06:08:28.881Z,88.06
2023-04-08T06:10:55.227Z,88.91
2023-04-08T06:13:21.544Z,89.11
2023-04-08T06:15:48.198Z,89.79
2023-04-08T06:18:16.448Z,88.19
2023-04-08T06:20:42.772Z,89.17
2023-04-08T06:23:09.094Z,88.09
2023-04-08T06:25:35.425Z,87.64
2023-04-08T06:28:01.774Z,88.37
2023-04-08T06:30:28.115Z,88.74
2023-04-08T06:32:54.498Z,88.91
2023-04-08T06:35:20.866Z,87.63
2023-04-08T06:37:47.217Z,89.37
2023-04-08T06:40:13.553Z,89.30
2023-04-08T06:42:39.855Z,87.54
2023-04-08T06:45:06.485Z,88.09
2023-04-08T06:47:32.839Z,87.21
2023-04-08T06:49:59.200Z,87.10
2023-04-08T06:52:25.531Z,87.67
2023-04-08T06:54:51.820Z,86.97
2023-04-08T06:57:18.294Z,87.46
2023-04-08T06:59:44.617Z,87.59
2023-04-08T07:02:10.960Z,88.67
2023-04-08T07:04:37.326Z,86.91
2023-04-08T07:07:03.627Z,86.08
2023-04-08T07:09:29.973Z,87.30
2023-04-08T07:11:56.274Z,86.70
2023-04-08T07:14:22.596Z,87.07
2023-04-08T07:16:48.980Z,85.67
2023-04-08T07:19:15.295Z,86.62
2023-04-08T07:21:41.612Z,87.74
2023-04-08T07:24:07.932Z,88.45
2023-04-08T07:26:34.224Z,88.22
2023-04-08T07:29:00.537Z,88.42
2023-04-08T07:31:26.883Z,88.40
2023-04-08T07:33:53.247Z,87.33
2023-04-08T07:36:19.593Z,86.01
2023-04-08T07:38:45.973Z,85.33
2023-04-08T07:41:12.368Z,87.56
2023-04-08T07:43:38.689Z,87.82
2023-04-08T07:46:06.173Z,88.13
2023-04-08T07:48:33.754Z,88.34
2023-04-08T07:51:18.007Z,89.42
2023-04-08T07:53:47.203Z,89.30
2023-04-08T07:56:15.428Z,87.85
2023-04-08T07:58:42.341Z,87.89
2023-04-08T08:01:22.979Z,89.01
2023-04-08T08:03:51.121Z,87.87
2023-04-08T08:06:17.919Z,86.90
2023-04-08T08:08:44.338Z,85.65
2023-04-08T08:11:10.656Z,85.76
2023-04-08T08:13:37.015Z,86.06
2023-04-08T08:16:03.439Z,84.74
2023-04-08T08:18:29.782Z,84.41
2023-04-08T08:20:56.158Z,85.29
2023-04-08T08:23:22.505Z,83.66
2023-04-08T08:25:48.845Z,85.26
2023-04-08T08:28:15.177Z,86.79
2023-04-08T08:30:41.523Z,85.75
2023-04-08T08:33:08.049Z,85.79
2023-04-08T08:35:34.474Z,86.45
2023-04-08T08:38:00.858Z,85.30
2023-04-08T08:40:27.227Z,84.14
2023-04-08T08:42:53.612Z,82.59
2023-04-08T08:45:20.536Z,83.91
2023-04-08T08:47:48.986Z,84.29
2023-04-08T08:50:16.835Z,83.67
2023-04-08T08:52:52.523Z,82.41
2023-04-08T08:55:36.370Z,80.85
2023-04-08T08:58:06.672Z,82.84
2023-04-08T09:00:37.549Z,81.73
2023-04-08T09:03:15.903Z,82.16
2023-04-08T09:05:50.200Z,82.73
2023-04-08T09:08:28.402Z,82.67
2023-04-08T09:10:55.907Z,83.05
2023-04-08T09:13:23.525Z,80.67
2023-04-08T09:16:01.995Z,79.76
2023-04-08T09:18:28.395Z,78.43
2023-04-08T09:20:54.801Z,79.94
2023-04-08T09:23:21.160Z,80.78
2023-04-08T09:25:48.104Z,83.18
2023-04-08T09:28:20.929Z,84.46
2023-04-08T09:30:47.526Z,84.86
2023-04-08T09:33:13.888Z,83.92
2023-04-08T09:35:40.233Z,80.19
2023-04-08T09:38:06.582Z,78.96
2023-04-08T09:40:34.752Z,78.98
2023-04-08T09:43:05.029Z,78.20
2023-04-08T09:45:34.048Z,80.06
2023-04-08T09:48:15.782Z,81.28
2023-04-08T09:50:50.726Z,83.07
2023-04-08T09:53:26.440Z,84.93
2023-04-08T09:55:56.856Z,83.67
2023-04-08T09:58:29.158Z,84.19
2023-04-08T10:00:55.772Z,84.79
2023-04-08T10:03:45.568Z,85.27
2023-04-08T10:06:12.407Z,83.61
2023-04-08T10:08:39.112Z,83.38
2023-04-08T10:11:05.503Z,84.00
2023-04-08T10:13:33.771Z,83.38
2023-04-08T10:16:22.146Z,86.04
2023-04-08T10:18:48.799Z,85.42
2023-04-08T10:21:33.839Z,84.89
2023-04-08T10:24:01.759Z,84.65
2023-04-08T10:26:54.421Z,85.21
2023-04-08T10:29:26.456Z,84.79
2023-04-08T10:31:52.914Z,85.23
2023-04-08T10:34:21.125Z,86.06
2023-04-08T10:36:48.284Z,84.79
2023-04-08T10:39:15.141Z,84.94
2023-04-08T10:41:42.547Z,83.74
2023-04-08T10:44:27.126Z,83.50
2023-04-08T10:46:54.566Z,85.23
2023-04-08T10:49:21.060Z,85.10
2023-04-08T10:51:47.505Z,85.39
2023-04-08T10:54:18.166Z,86.01
2023-04-08T10:56:49.357Z,85.17
2023-04-08T10:59:17.771Z,82.01
2023-04-08T11:01:46.804Z,84.04
2023-04-08T11:04:18.057Z,82.22
2023-04-08T11:06:45.711Z,82.12
2023-04-08T11:09:12.332Z,83.56
2023-04-08T11:11:39.164Z,81.67
2023-04-08T11:14:06.461Z,81.97
2023-04-08T11:16:33.946Z,81.81
2023-04-08T11:19:02.492Z,80.71
2023-04-08T11:21:28.916Z,80.83
2023-04-08T11:23:55.684Z,81.36
2023-04-08T11:26:22.589Z,80.37
2023-04-08T11:28:49.143Z,81.92
2023-04-08T11:31:15.682Z,81.64
2023-04-08T11:33:49.391Z,80.63
2023-04-08T11:36:18.002Z,81.15
2023-04-08T11:38:44.464Z,81.38
2023-04-08T11:41:11.069Z,78.23
2023-04-08T11:43:37.911Z,78.75
2023-04-08T11:46:11.040Z,77.40
2023-04-08T11:48:37.519Z,75.53
2023-04-08T11:51:08.161Z,76.00
2023-04-08T11:53:35.313Z,76.79
2023-04-08T11:56:19.270Z,77.29
2023-04-08T11:58:45.683Z,78.30
2023-04-08T12:01:12.342Z,78.30
2023-04-08T12:03:38.952Z,81.24
2023-04-08T12:06:05.509Z,80.43
2023-04-08T12:08:31.819Z,80.37
2023-04-08T12:11:03.736Z,78.09
2023-04-08T12:13:39.431Z,79.43
2023-04-08T12:16:06.022Z,80.01
2023-04-08T12:18:32.309Z,78.83
2023-04-08T12:20:58.632Z,77.24
2023-04-08T12:23:25.013Z,76.90
2023-04-08T12:25:51.331Z,76.88
2023-04-08T12:28:17.634Z,75.74
2023-04-08T12:30:43.934Z,75.45
2023-04-08T12:33:10.332Z,78.89
2023-04-08T12:35:37.787Z,78.06
2023-04-08T12:38:04.102Z,79.01
2023-04-08T12:40:30.422Z,80.55
2023-04-08T12:42:56.726Z,79.68
2023-04-08T12:45:23.129Z,79.17
2023-04-08T12:47:49.494Z,78.65
2023-04-08T12:50:15.894Z,79.42
2023-04-08T12:52:42.198Z,78.71
2023-04-08T12:55:08.983Z,78.65
2023-04-08T12:57:35.641Z,77.50
2023-04-08T13:00:02.053Z,78.72
2023-04-08T13:02:28.489Z,80.69
2023-04-08T13:04:54.880Z,81.00
2023-04-08T13:07:21.414Z,80.49
2023-04-08T13:09:47.708Z,79.78
2023-04-08T13:12:14.021Z,79.48
2023-04-08T13:14:40.327Z,78.58
2023-04-08T13:17:06.628Z,80.08
2023-04-08T13:19:32.934Z,81.92
2023-04-08T13:21:59.276Z,80.58
2023-04-08T13:24:25.624Z,82.43
2023-04-08T13:26:51.917Z,80.66
2023-04-08T13:29:18.213Z,81.42
2023-04-08T13:31:44.547Z,82.07
2023-04-08T13:34:10.874Z,81.37
2023-04-08T13:36:37.166Z,81.08
2023-04-08T13:39:03.566Z,80.59
2023-04-08T13:41:29.853Z,80.91
2023-04-08T13:43:56.185Z,79.45
2023-04-08T13:46:22.556Z,78.56
2023-04-08T13:48:48.963Z,77.34
2023-04-08T13:51:15.372Z,77.14
2023-04-08T13:53:41.682Z,78.19
2023-04-08T13:56:08.101Z,77.71
2023-04-08T13:58:34.409Z,78.04
2023-04-08T14:01:00.802Z,78.42
2023-04-08T14:03:27.162Z,77.06
2023-04-08T14:05:53.557Z,75.21
2023-04-08T14:08:19.857Z,78.75
2023-04-08T14:10:46.154Z,79.73
2023-04-08T14:13:12.428Z,78.96
2023-04-08T14:15:38.737Z,78.35
2023-04-08T14:18:05.083Z,80.05
2023-04-08T14:20:31.437Z,79.15
2023-04-08T14:22:57.752Z,79.63
2023-04-08T14:25:24.405Z,80.03
2023-04-08T14:27:58.133Z,80.56
2023-04-08T14:30:25.348Z,82.27
2023-04-08T14:32:51.736Z,80.87
2023-04-08T14:35:18.450Z,81.09
2023-04-08T14:37:44.755Z,80.31
2023-04-08T14:40:11.529Z,80.01
2023-04-08T14:42:37.925Z,80.35
2023-04-08T14:45:04.457Z,81.83
2023-04-08T14:47:30.793Z,81.39
2023-04-08T14:49:57.157Z,81.13
2023-04-08T14:52:23.457Z,82.71
2023-04-08T14:54:49.740Z,82.77
2023-04-08T14:57:16.073Z,82.05
2023-04-08T14:59:42.374Z,80.61
2023-04-08T15:02:08.827Z,82.14
2023-04-08T15:04:35.344Z,81.26
2023-04-08T15:07:01.743Z,79.35
2023-04-08T15:09:28.068Z,79.02
2023-04-08T15:11:54.381Z,81.30
2023-04-08T15:14:20.674Z,83.18
2023-04-08T15:16:47.072Z,81.06
2023-04-08T15:19:13.391Z,82.26
2023-04-08T15:21:39.708Z,81.41
2023-04-08T15:24:06.095Z,81.36
2023-04-08T15:26:32.407Z,80.27
2023-04-08T15:28:58.700Z,79.59
2023-04-08T15:31:25.095Z,78.79
2023-04-08T15:33:51.676Z,79.65
2023-04-08T15:36:18.191Z,80.65
2023-04-08T15:38:44.693Z,82.05
2023-04-08T15:41:18.470Z,81.22
2023-04-08T15:43:45.926Z,82.21
2023-04-08T15:46:17.609Z,83.02
2023-04-08T15:48:44.100Z,80.90
2023-04-08T15:51:10.684Z,80.14
2023-04-08T15:53:36.983Z,82.07
2023-04-08T15:56:03.300Z,81.55
2023-04-08T15:58:29.898Z,79.95
2023-04-08T16:00:56.198Z,81.33
2023-04-08T16:03:22.697Z,83.03
2023-04-08T16:05:49.152Z,83.53
2023-04-08T16:08:15.565Z,83.08
2023-04-08T16:10:42.340Z,83.17
2023-04-08T16:13:08.642Z,83.30
2023-04-08T16:15:35.356Z,82.86
2023-04-08T16:18:03.100Z,82.39
2023-04-08T16:20:29.422Z,83.31
2023-04-08T16:22:56.134Z,83.52
2023-04-08T16:25:22.625Z,84.20
2023-04-08T16:27:48.939Z,83.89
2023-04-08T16:30:15.463Z,83.74
2023-04-08T16:32:41.774Z,83.63
2023-04-08T16:35:08.573Z,82.90
2023-04-08T16:37:34.869Z,82.24
2023-04-08T16:40:01.254Z,82.52
2023-04-08T16:42:27.614Z,83.09
2023-04-08T16:44:57.277Z,82.22
2023-04-08T16:47:23.802Z,83.21
2023-04-08T16:49:51.295Z,82.84
2023-04-08T16:52:17.601Z,83.96
2023-04-08T16:54:44.306Z,83.60
2023-04-08T16:57:10.617Z,83.40
2023-04-08T16:59:36.978Z,84.48
2023-04-08T17:02:03.515Z,84.41
2023-04-08T17:04:29.981Z,84.67
2023-04-08T17:06:56.412Z,83.72
2023-04-08T17:09:23.016Z,84.51
2023-04-08T17:11:49.413Z,83.62
2023-04-08T17:14:15.738Z,83.07
2023-04-08T17:16:42.073Z,82.85
2023-04-08T17:19:08.452Z,83.73
2023-04-08T17:21:34.744Z,83.43
2023-04-08T17:24:01.075Z,82.74
2023-04-08T17:26:27.417Z,82.96
2023-04-08T17:28:53.729Z,82.73
2023-04-08T17:31:20.067Z,82.80
2023-04-08T17:33:46.390Z,83.54
2023-04-08T17:36:12.851Z,84.00
2023-04-08T17:38:39.174Z,83.68
2023-04-08T17:41:05.829Z,83.49
2023-04-08T17:43:32.137Z,83.75
2023-04-08T17:46:01.850Z,83.99
2023-04-08T17:48:28.402Z,84.01
2023-04-08T17:51:02.096Z,84.72
2023-04-08T17:53:28.509Z,85.32
2023-04-08T17:55:54.829Z,85.41
2023-04-08T17:58:22.276Z,85.34
2023-04-08T18:00:48.710Z,85.58
2023-04-08T18:03:15.204Z,86.12
2023-04-08T18:05:42.024Z,86.08
2023-04-08T18:08:08.714Z,86.02
2023-04-08T18:10:37.041Z,85.28
2023-04-08T18:15:35.306Z,84.98
2023-04-08T18:18:01.748Z,84.84
2023-04-08T18:20:28.084Z,85.23
2023-04-08T18:22:54.460Z,84.94
2023-04-08T18:25:20.777Z,84.85
2023-04-08T18:27:47.090Z,85.17
2023-04-08T18:30:13.519Z,84.91
2023-04-08T18:32:39.854Z,84.28
2023-04-08T18:35:06.603Z,84.30
2023-04-08T18:37:32.920Z,84.93
2023-04-08T18:39:59.230Z,85.34
2023-04-08T18:42:25.525Z,85.89
2023-04-08T18:44:51.829Z,84.98
2023-04-08T18:47:18.131Z,85.15
2023-04-08T18:49:44.428Z,85.24
2023-04-08T18:52:10.761Z,84.55
2023-04-08T18:54:37.071Z,84.30
2023-04-08T18:57:03.407Z,84.37
2023-04-08T18:59:29.744Z,84.56
2023-04-08T19:01:56.317Z,86.06
2023-04-08T19:04:22.948Z,85.98
2023-04-08T19:06:49.315Z,85.17
2023-04-08T19:09:15.615Z,85.30
2023-04-08T19:11:41.931Z,85.03
2023-04-08T19:14:08.254Z,84.67
2023-04-08T19:16:34.809Z,83.81
2023-04-08T19:19:01.166Z,83.59
2023-04-08T19:21:27.542Z,83.82
2023-04-08T19:23:54.084Z,84.35
2023-04-08T19:26:20.430Z,83.60
2023-04-08T19:28:46.759Z,83.21
2023-04-08T19:31:17.515Z,82.05
2023-04-08T19:33:44.340Z,82.07
2023-04-08T19:36:11.365Z,82.76
2023-04-08T19:38:38.087Z,82.12
2023-04-08T19:41:04.648Z,83.24
2023-04-08T19:43:30.959Z,83.18
2023-04-08T19:45:57.812Z,83.35
2023-04-08T19:48:24.739Z,83.06
2023-04-08T19:50:52.107Z,82.60
2023-04-08T19:53:18.635Z,82.41
2023-04-08T19:55:44.939Z,83.15
2023-04-08T19:58:11.416Z,83.14
2023-04-08T20:00:37.728Z,83.67
2023-04-08T20:03:05.256Z,83.01
2023-04-08T20:05:31.884Z,83.35
2023-04-08T20:07:58.204Z,82.96
2023-04-08T20:10:24.510Z,83.71
2023-04-08T20:12:52.932Z,83.41
2023-04-08T20:15:24.710Z,83.21
2023-04-08T20:17:51.835Z,83.23
2023-04-08T20:20:18.296Z,83.70
2023-04-08T20:22:44.630Z,84.54
2023-04-08T20:25:10.940Z,84.72
2023-04-08T20:27:37.249Z,85.27
2023-04-08T20:30:03.809Z,85.79
2023-04-08T20:32:30.114Z,86.91
2023-04-08T20:34:56.428Z,87.37
2023-04-08T20:37:22.743Z,87.69
2023-04-08T20:39:49.055Z,87.88
2023-04-08T20:42:15.355Z,88.09
2023-04-08T20:44:41.686Z,88.80
2023-04-08T20:47:08.059Z,88.81
2023-04-08T20:49:34.493Z,89.22
2023-04-08T20:52:00.796Z,88.94
2023-04-08T20:54:27.123Z,88.59
2023-04-08T20:56:53.420Z,88.41
2023-04-08T20:59:19.741Z,89.17
2023-04-08T21:01:46.173Z,89.45
2023-04-08T21:04:12.533Z,89.83
2023-04-08T21:06:38.844Z,90.38
2023-04-08T21:09:05.167Z,90.48
2023-04-08T21:11:31.480Z,91.02
2023-04-08T21:13:57.799Z,90.91
2023-04-08T21:16:24.137Z,90.02
2023-04-08T21:18:50.690Z,90.37
2023-04-08T21:21:17.212Z,91.25
2023-04-08T21:23:43.513Z,92.64
2023-04-08T21:26:11.120Z,92.82
2023-04-08T21:28:37.474Z,93.14
2023-04-08T21:31:13.520Z,93.62
2023-04-08T21:33:40.077Z,93.37
2023-04-08T21:36:06.655Z,94.34
2023-04-08T21:38:33.676Z,93.78
2023-04-08T21:41:00.238Z,94.15
2023-04-08T21:43:26.646Z,94.42
2023-04-08T21:45:53.832Z,94.58
2023-04-08T21:48:20.420Z,94.48
2023-04-08T21:50:47.173Z,94.30
2023-04-08T21:53:13.496Z,95.53
2023-04-08T21:55:39.806Z,96.36
2023-04-08T21:58:06.111Z,95.93
2023-04-08T22:00:32.414Z,96.66
2023-04-08T22:02:58.984Z,96.88
2023-04-08T22:05:25.480Z,96.73
2023-04-08T22:07:51.789Z,96.58
2023-04-08T22:10:18.166Z,96.63
2023-04-08T22:12:44.468Z,96.14
2023-04-08T22:15:11.099Z,95.66
2023-04-08T22:17:37.410Z,95.64
2023-04-08T22:20:03.993Z,95.49
2023-04-08T22:22:30.320Z,95.65
2023-04-08T22:24:56.630Z,95.35
2023-04-08T22:27:22.917Z,95.26
2023-04-08T22:29:49.251Z,95.49
2023-04-08T22:32:15.604Z,95.76
2023-04-08T22:34:41.931Z,96.30
2023-04-08T22:37:08.266Z,96.94
2023-04-08T22:39:34.584Z,97.07
2023-04-08T22:42:00.946Z,97.24
2023-04-08T22:44:27.254Z,96.63
2023-04-08T22:46:53.541Z,97.27
2023-04-08T22:49:19.847Z,97.20
2023-04-08T22:51:46.162Z,96.07
2023-04-08T22:54:12.466Z,96.77
2023-04-08T22:56:38.797Z,97.16
2023-04-08T22:59:05.166Z,96.88
2023-04-08T23:01:31.627Z,96.91
2023-04-08T23:03:58.024Z,97.73
2023-04-08T23:06:24.519Z,98.50
2023-04-08T23:08:51.060Z,99.21
2023-04-08T23:11:17.639Z,99.30
2023-04-08T23:13:43.939Z,98.92
2023-04-08T23:16:10.546Z,99.12
2023-04-08T23:18:36.943Z,99.71
2023-04-08T23:21:03.292Z,99.78
2023-04-08T23:23:29.601Z,99.91
2023-04-08T23:25:56.048Z,100.00
2023-04-08T23:28:22.784Z,100.00
2023-04-08T23:30:49.120Z,100.00
2023-04-08T23:33:15.483Z,99.67
2023-04-08T23:35:41.959Z,99.37
2023-04-08T23:38:08.294Z,99.17
2023-04-08T23:40:34.609Z,98.98
2023-04-08T23:43:00.903Z,98.70
2023-04-08T23:45:27.191Z,99.06
2023-04-08T23:47:53.562Z,99.35
2023-04-08T23:50:19.862Z,99.10
2023-04-08T23:52:46.163Z,98.65
2023-04-08T23:55:12.457Z,97.81
2023-04-08T23:57:41.842Z,97.48
